WHISKEYTOWN DAM (USBR) (WHI)

Elevation: 1210' · SACRAMENTO R basin · Operator: US Bureau of Reclamation

Provisional data, subject to change.
Query executed Monday at 0:56:43   clock

Select a sensor type for a plot of data.
Note: Reservoir Flows are daily averages.

Earlier

Date RES ELE    STORAGE    RES CHG    OUTFLOW    INFLOW    EVAP    RIV REL    PPT INC    RAIN    SPILL    DIS PWR   
 FEET   AF   AF   CFS   CFS   CFS   CFS   INCHES   INCHES   CFS   CFS  
09/21/2014 1208.72 237005 0 192 204 12 178 0.00 31.48 0 14
09/22/2014 1208.85 237418 413 192 431 31 178 0.00 31.48 0 14
09/23/2014 1208.83 237355 -63 200 179 11 178 0.00 31.48 0 22
09/24/2014 1209.38 239111 1756 192 1090 13 178 0.00 31.48 0 14
09/25/2014 1209.22 238599 -512 759 506 5 178 1.78 33.26 0 581
09/26/2014 1208.93 237673 -926 1087 622 2 178 0.70 33.96 0 909
09/27/2014 1208.90 237577 -96 706 670 12 178 0.00 33.96 0 528
09/28/2014 1208.64 236751 -826 665 261 12 178 0.00 33.96 0 487
09/29/2014 1208.64 236751 0 710 724 14 178 0.00 33.96 0 532
09/30/2014 1208.61 236656 -95 678 635 5 178 0.00 33.96 0 500
10/01/2014 1208.53 236401 -255 723 604 10 178 0.00 0.00 0 545
10/02/2014 1208.48 236242 -159 707 631 4 197 0.00 0.00 0 510
10/03/2014 1208.36 235861 -381 867 688 13 213 0.00 0.00 0 654
10/04/2014 1208.21 235384 -477 902 675 13 213 0.00 0.00 0 689
10/05/2014 1208.00 234717 -667 859 534 11 213 0.00 0.00 0 646
10/06/2014 1207.78 234023 -694 916 580 14 212 0.00 0.00 0 704
10/07/2014 1207.42 232887 -1136 1061 498 10 212 0.00 0.00 0 849
10/08/2014 1207.19 232161 -726 973 615 8 212 0.00 0.00 0 761
10/09/2014 1207.03 231657 -504 857 608 5 197 0.00 0.00 0 660
10/10/2014 1206.77 230842 -815 854 450 7 178 0.00 0.00 0 676
10/11/2014 1206.44 229809 -1033 1444 933 10 178 0.00 0.00 0 1266
10/12/2014 1206.07 228650 -1159 1418 840 6 178 0.00 0.00 0 1240
10/13/2014 1205.67 227405 -1245 1234 612 6 178 0.00 0.00 0 1056
10/14/2014 1205.35 226411 -994 1174 682 9 177 0.00 0.00 0 997
10/15/2014 1205.38 226504 93 762 809 0 177 0.48 0.48 0 585
10/16/2014 1204.99 225292 -1212 1362 751 0 177 0.04 0.52 0 1185
10/17/2014 1204.63 224182 -1110 1283 723 0 177 0.00 0.52 0 1106
10/18/2014 1204.29 223133 -1049 1330 801 0 176 0.01 0.53 0 1154
10/19/2014 -- -- -- -- -- -- -- -- -- -- --
10/20/2014 -- -- -- -- -- -- -- -- -- -- --

Later | Latest

Warning! This data is preliminary and subject to revision.

Show WHI Map | Plot WHI Data | 1 Month WHI Data | Real-Time WHI Data | WHI Info